createdAt,value
2023-03-31T00:02:13.334Z,4.32
2023-03-31T00:04:45.935Z,4.40
2023-03-31T00:07:16.106Z,4.47
2023-03-31T00:09:46.091Z,4.00
2023-03-31T00:12:16.650Z,4.38
2023-03-31T00:14:44.249Z,3.97
2023-03-31T00:17:11.505Z,4.63
2023-03-31T00:19:40.161Z,3.88
2023-03-31T00:22:07.256Z,4.22
2023-03-31T00:24:34.378Z,3.90
2023-03-31T00:27:01.945Z,4.47
2023-03-31T00:29:29.395Z,4.50
2023-03-31T00:31:56.523Z,4.32
2023-03-31T00:34:23.156Z,4.03
2023-03-31T00:36:49.724Z,4.30
2023-03-31T00:39:18.558Z,4.15
2023-03-31T00:41:45.735Z,4.07
2023-03-31T00:44:24.351Z,3.80
2023-03-31T00:46:56.712Z,3.85
2023-03-31T00:49:40.639Z,3.88
2023-03-31T00:52:23.738Z,3.90
2023-03-31T00:54:56.585Z,4.10
2023-03-31T00:57:25.953Z,3.63
2023-03-31T00:59:58.915Z,3.58
2023-03-31T01:02:25.921Z,3.58
2023-03-31T01:04:57.360Z,3.85
2023-03-31T01:07:30.345Z,4.00
2023-03-31T01:10:01.845Z,3.38
2023-03-31T01:12:28.798Z,3.60
2023-03-31T01:14:55.891Z,3.55
2023-03-31T01:17:24.341Z,3.40
2023-03-31T01:20:27.309Z,3.40
2023-03-31T01:23:15.327Z,3.30
2023-03-31T01:26:21.245Z,3.35
2023-03-31T01:29:08.554Z,3.53
2023-03-31T01:31:55.360Z,3.60
2023-03-31T01:34:43.235Z,3.50
2023-03-31T01:37:34.707Z,3.67
2023-03-31T01:40:10.786Z,3.35
2023-03-31T01:42:39.250Z,3.35
2023-03-31T01:45:58.392Z,3.50
2023-03-31T01:48:52.769Z,3.45
2023-03-31T01:51:29.903Z,3.67
2023-03-31T01:54:19.612Z,4.00
2023-03-31T01:57:01.959Z,3.70
2023-03-31T01:59:40.455Z,3.30
2023-03-31T02:02:13.815Z,4.00
2023-03-31T02:04:46.473Z,3.90
2023-03-31T02:07:19.498Z,3.70
2023-03-31T02:09:54.119Z,3.60
2023-03-31T02:12:25.801Z,3.83
2023-03-31T02:14:54.885Z,3.50
2023-03-31T02:17:30.285Z,3.83
2023-03-31T02:20:01.650Z,3.67
2023-03-31T02:22:33.935Z,3.70
2023-03-31T02:25:03.459Z,3.47
2023-03-31T02:27:39.055Z,3.33
2023-03-31T02:30:07.834Z,3.40
2023-03-31T02:32:38.430Z,3.10
2023-03-31T02:35:07.740Z,3.45
2023-03-31T02:37:34.576Z,3.47
2023-03-31T02:40:06.315Z,3.40
2023-03-31T02:42:34.001Z,3.50
2023-03-31T02:45:27.609Z,3.35
2023-03-31T02:47:55.266Z,3.10
2023-03-31T02:50:27.929Z,3.17
2023-03-31T02:53:22.207Z,3.17
2023-03-31T02:56:06.820Z,3.38
2023-03-31T02:58:46.042Z,3.47
2023-03-31T03:01:33.671Z,3.20
2023-03-31T03:04:13.643Z,3.28
2023-03-31T03:06:53.873Z,3.50
2023-03-31T03:09:31.811Z,3.50
2023-03-31T03:12:08.214Z,3.40
2023-03-31T03:14:56.014Z,3.42
2023-03-31T03:17:37.525Z,3.55
2023-03-31T03:20:09.500Z,3.90
2023-03-31T03:22:37.974Z,3.63
2023-03-31T03:25:09.590Z,3.97
2023-03-31T03:27:36.869Z,3.92
2023-03-31T03:30:05.262Z,4.00
2023-03-31T03:32:33.685Z,3.45
2023-03-31T03:35:04.729Z,3.78
2023-03-31T03:37:31.906Z,3.72
2023-03-31T03:39:58.415Z,3.80
2023-03-31T03:42:25.297Z,3.65
2023-03-31T03:44:51.803Z,3.80
2023-03-31T03:47:18.308Z,4.15
2023-03-31T03:49:44.991Z,3.30
2023-03-31T03:52:11.523Z,3.60
2023-03-31T03:54:38.114Z,3.55
2023-03-31T03:57:04.773Z,3.28
2023-03-31T03:59:31.303Z,3.63
2023-03-31T04:01:57.911Z,3.45
2023-03-31T04:04:24.516Z,3.30
2023-03-31T04:06:51.215Z,3.65
2023-03-31T04:09:17.944Z,2.95
2023-03-31T04:11:44.518Z,3.10
2023-03-31T04:14:11.011Z,2.90
2023-03-31T04:16:38.533Z,3.03
2023-03-31T04:19:05.236Z,3.00
2023-03-31T04:21:34.758Z,2.90
2023-03-31T04:24:04.516Z,2.80
2023-03-31T04:26:42.991Z,3.00
2023-03-31T04:29:12.908Z,2.80
2023-03-31T04:31:42.805Z,2.67
2023-03-31T04:34:13.355Z,2.58
2023-03-31T04:36:49.975Z,2.83
2023-03-31T04:39:18.105Z,3.05
2023-03-31T04:41:44.931Z,3.08
2023-03-31T04:44:11.486Z,3.30
2023-03-31T04:46:38.054Z,2.63
2023-03-31T04:49:05.668Z,2.75
2023-03-31T04:51:32.330Z,2.80
2023-03-31T04:53:58.897Z,2.80
2023-03-31T04:56:25.721Z,2.80
2023-03-31T04:58:52.268Z,3.33
2023-03-31T05:01:18.794Z,2.80
2023-03-31T05:03:47.982Z,2.90
2023-03-31T05:06:15.728Z,2.95
2023-03-31T05:08:42.411Z,2.65
2023-03-31T05:11:08.949Z,2.78
2023-03-31T05:13:35.596Z,2.75
2023-03-31T05:16:09.825Z,3.03
2023-03-31T05:18:36.572Z,3.05
2023-03-31T05:21:14.259Z,2.50
2023-03-31T05:23:41.020Z,2.53
2023-03-31T05:26:08.844Z,2.63
2023-03-31T05:28:36.267Z,2.88
2023-03-31T05:31:04.691Z,3.00
2023-03-31T05:33:31.679Z,2.70
2023-03-31T05:36:00.378Z,2.92
2023-03-31T05:38:31.649Z,2.92
2023-03-31T05:40:58.386Z,2.88
2023-03-31T05:43:25.130Z,3.10
2023-03-31T05:45:51.803Z,2.80
2023-03-31T05:48:18.449Z,2.95
2023-03-31T05:50:45.029Z,2.70
2023-03-31T05:53:11.714Z,2.67
2023-03-31T05:55:39.039Z,3.00
2023-03-31T05:58:06.692Z,2.92
2023-03-31T06:00:33.290Z,2.80
2023-03-31T06:02:59.952Z,2.83
2023-03-31T06:05:26.870Z,2.85
2023-03-31T06:07:53.992Z,2.72
2023-03-31T06:10:20.625Z,3.13
2023-03-31T06:12:47.155Z,2.80
2023-03-31T06:15:13.816Z,2.85
2023-03-31T06:17:40.434Z,2.90
2023-03-31T06:20:16.295Z,2.63
2023-03-31T06:22:50.990Z,2.45
2023-03-31T06:25:17.592Z,3.00
2023-03-31T06:27:44.189Z,2.53
2023-03-31T06:30:11.224Z,2.60
2023-03-31T06:32:37.801Z,3.13
2023-03-31T06:35:04.689Z,2.95
2023-03-31T06:37:31.462Z,3.22
2023-03-31T06:39:58.071Z,2.83
2023-03-31T06:42:24.625Z,2.60
2023-03-31T06:44:51.269Z,2.42
2023-03-31T06:47:17.728Z,2.25
2023-03-31T06:49:44.182Z,2.80
2023-03-31T06:52:10.718Z,2.55
2023-03-31T06:54:37.317Z,2.45
2023-03-31T06:57:04.233Z,2.55
2023-03-31T06:59:30.926Z,2.22
2023-03-31T07:01:57.544Z,2.08
2023-03-31T07:04:24.094Z,2.10
2023-03-31T07:06:51.573Z,1.98
2023-03-31T07:09:18.680Z,1.98
2023-03-31T07:11:45.276Z,2.10
2023-03-31T07:14:11.941Z,1.88
2023-03-31T07:16:38.642Z,1.80
2023-03-31T07:19:07.124Z,2.00
2023-03-31T07:21:34.033Z,2.08
2023-03-31T07:24:00.639Z,2.10
2023-03-31T07:26:27.780Z,2.10
2023-03-31T07:28:56.682Z,2.20
2023-03-31T07:31:23.645Z,2.40
2023-03-31T07:33:50.575Z,2.30
2023-03-31T07:36:17.434Z,2.65
2023-03-31T07:38:46.712Z,2.75
2023-03-31T07:41:16.716Z,2.60
2023-03-31T07:43:43.722Z,2.53
2023-03-31T07:46:25.846Z,2.60
2023-03-31T07:48:54.061Z,2.92
2023-03-31T07:51:25.969Z,2.70
2023-03-31T07:53:53.073Z,2.90
2023-03-31T07:56:21.799Z,2.90
2023-03-31T07:58:48.683Z,3.22
2023-03-31T08:01:19.800Z,2.88
2023-03-31T08:03:48.272Z,3.00
2023-03-31T08:06:20.442Z,2.97
2023-03-31T08:08:47.272Z,3.13
2023-03-31T08:11:14.133Z,2.75
2023-03-31T08:13:40.846Z,3.40
2023-03-31T08:16:07.660Z,3.00
2023-03-31T08:18:34.483Z,3.30
2023-03-31T08:21:00.992Z,3.25
2023-03-31T08:23:27.494Z,3.40
2023-03-31T08:25:53.997Z,3.53
2023-03-31T08:28:20.538Z,3.80
2023-03-31T08:30:47.163Z,3.65
2023-03-31T08:33:14.216Z,3.90
2023-03-31T08:35:40.757Z,3.35
2023-03-31T08:38:07.368Z,3.33
2023-03-31T08:40:34.015Z,4.03
2023-03-31T08:43:15.353Z,3.78
2023-03-31T08:45:47.023Z,3.65
2023-03-31T08:48:45.094Z,3.80
2023-03-31T08:51:21.255Z,4.10
2023-03-31T08:53:57.737Z,3.70
2023-03-31T08:56:27.165Z,3.90
2023-03-31T08:58:54.012Z,3.25
2023-03-31T09:01:55.777Z,3.35
2023-03-31T09:04:27.121Z,3.83
2023-03-31T09:07:07.673Z,3.97
2023-03-31T09:09:44.237Z,3.53
2023-03-31T09:12:16.822Z,3.83
2023-03-31T09:15:01.247Z,3.47
2023-03-31T09:17:33.035Z,3.60
2023-03-31T09:22:34.491Z,3.80
2023-03-31T09:25:26.429Z,3.50
2023-03-31T09:27:57.703Z,3.85
2023-03-31T09:30:33.168Z,3.72
2023-03-31T09:33:22.530Z,4.03
2023-03-31T09:35:51.451Z,4.13
2023-03-31T09:38:18.735Z,4.20
2023-03-31T09:40:45.548Z,3.50
2023-03-31T09:43:26.533Z,3.42
2023-03-31T09:46:08.559Z,3.77
2023-03-31T09:48:36.845Z,3.47
2023-03-31T09:51:06.764Z,3.30
2023-03-31T09:53:55.347Z,3.88
2023-03-31T09:56:43.659Z,3.50
2023-03-31T09:59:19.268Z,4.07
2023-03-31T10:01:47.981Z,3.30
2023-03-31T10:04:23.250Z,3.40
2023-03-31T10:06:52.300Z,3.70
2023-03-31T10:09:21.923Z,3.40
2023-03-31T10:12:09.233Z,3.58
2023-03-31T10:14:44.175Z,3.70
2023-03-31T10:17:16.719Z,4.15
2023-03-31T10:19:53.525Z,3.63
2023-03-31T10:22:22.763Z,3.45
2023-03-31T10:24:53.336Z,3.60
2023-03-31T10:27:26.362Z,3.55
2023-03-31T10:30:01.929Z,3.60
2023-03-31T10:32:43.239Z,3.33
2023-03-31T10:35:36.334Z,4.15
2023-03-31T10:38:26.217Z,3.50
2023-03-31T10:40:57.919Z,3.50
2023-03-31T10:43:30.684Z,3.58
2023-03-31T10:46:02.883Z,3.35
2023-03-31T10:48:38.594Z,3.83
2023-03-31T10:51:11.609Z,3.50
2023-03-31T10:53:42.218Z,3.47
2023-03-31T10:56:14.520Z,3.80
2023-03-31T10:59:18.131Z,3.60
2023-03-31T11:01:53.960Z,3.42
2023-03-31T11:04:44.565Z,3.25
2023-03-31T11:07:53.070Z,3.50
2023-03-31T11:11:17.741Z,3.33
2023-03-31T11:14:12.768Z,3.63
2023-03-31T11:16:48.340Z,3.30
2023-03-31T11:19:30.342Z,3.65
2023-03-31T11:25:17.914Z,3.60
2023-03-31T11:28:13.021Z,4.00
2023-03-31T11:30:54.523Z,3.72
2023-03-31T11:34:04.498Z,4.00
2023-03-31T11:37:11.748Z,4.10
2023-03-31T11:40:07.732Z,3.70
2023-03-31T11:42:41.087Z,3.60
2023-03-31T11:45:19.701Z,3.60
2023-03-31T11:47:49.338Z,3.95
2023-03-31T11:50:29.244Z,3.72
2023-03-31T11:53:03.283Z,3.88
2023-03-31T11:55:32.391Z,5.00
2023-03-31T11:58:16.942Z,3.60
2023-03-31T12:01:01.179Z,4.47
2023-03-31T12:03:47.834Z,3.67
2023-03-31T12:06:19.732Z,3.92
2023-03-31T12:08:58.747Z,3.58
2023-03-31T12:11:33.010Z,3.65
2023-03-31T12:14:19.055Z,3.67
2023-03-31T12:16:49.093Z,3.47
2023-03-31T12:19:39.357Z,3.33
2023-03-31T12:22:29.177Z,3.15
2023-03-31T12:24:55.986Z,3.20
2023-03-31T12:27:37.002Z,3.00
2023-03-31T12:30:07.077Z,3.60
2023-03-31T12:32:38.814Z,3.30
2023-03-31T12:37:59.762Z,3.28
2023-03-31T12:41:01.756Z,3.63
2023-03-31T12:43:44.978Z,3.50
2023-03-31T12:46:23.696Z,3.42
2023-03-31T12:49:27.296Z,3.92
2023-03-31T12:52:09.841Z,3.60
2023-03-31T12:55:09.511Z,3.53
2023-03-31T12:57:36.593Z,4.10
2023-03-31T13:00:08.078Z,3.67
2023-03-31T13:02:34.826Z,4.35
2023-03-31T13:05:36.794Z,4.00
2023-03-31T13:09:04.182Z,3.65
2023-03-31T13:11:33.596Z,3.50
2023-03-31T13:14:03.212Z,4.03
2023-03-31T13:16:31.797Z,4.07
2023-03-31T13:18:59.161Z,3.50
2023-03-31T13:21:26.056Z,3.70
2023-03-31T13:23:53.681Z,3.78
2023-03-31T13:26:41.738Z,3.50
2023-03-31T13:29:14.037Z,3.80
2023-03-31T13:32:02.408Z,3.60
2023-03-31T13:34:42.320Z,3.75
2023-03-31T13:37:45.196Z,3.70
2023-03-31T13:40:40.202Z,3.05
2023-03-31T13:43:27.214Z,3.75
2023-03-31T13:46:27.901Z,3.17
2023-03-31T13:49:14.755Z,3.08
2023-03-31T13:52:03.286Z,3.40
2023-03-31T13:55:00.780Z,3.13
2023-03-31T13:57:27.626Z,3.00
2023-03-31T14:00:12.625Z,3.03
2023-03-31T14:02:54.464Z,3.15
2023-03-31T14:05:42.202Z,3.15
2023-03-31T14:08:17.209Z,3.45
2023-03-31T14:10:43.865Z,3.13
2023-03-31T14:13:13.098Z,3.00
2023-03-31T14:15:42.006Z,3.20
2023-03-31T14:18:13.335Z,3.20
2023-03-31T14:20:52.243Z,3.30
2023-03-31T14:23:38.444Z,3.28
2023-03-31T14:26:12.388Z,3.10
2023-03-31T14:28:48.013Z,2.80
2023-03-31T14:31:35.210Z,2.88
2023-03-31T14:34:24.697Z,3.10
2023-03-31T14:37:13.639Z,3.20
2023-03-31T14:39:50.881Z,2.72
2023-03-31T14:42:20.168Z,2.65
2023-03-31T14:44:48.512Z,2.70
2023-03-31T14:47:29.209Z,2.70
2023-03-31T14:50:07.814Z,3.00
2023-03-31T14:52:35.747Z,3.15
2023-03-31T14:55:02.343Z,2.90
2023-03-31T14:57:38.968Z,2.70
2023-03-31T15:00:08.432Z,2.60
2023-03-31T15:02:42.415Z,2.80
2023-03-31T15:05:19.893Z,2.65
2023-03-31T15:07:46.452Z,2.47
2023-03-31T15:10:19.315Z,2.40
2023-03-31T15:12:47.532Z,2.00
2023-03-31T15:15:14.950Z,2.20
2023-03-31T15:17:42.846Z,2.30
2023-03-31T15:20:28.619Z,2.22
2023-03-31T15:22:59.435Z,2.10
2023-03-31T15:25:33.919Z,2.00
2023-03-31T15:28:11.847Z,2.25
2023-03-31T15:30:38.734Z,2.17
2023-03-31T15:36:04.139Z,2.00
2023-03-31T15:38:32.618Z,2.15
2023-03-31T15:41:00.128Z,2.10
2023-03-31T15:43:30.952Z,2.15
2023-03-31T15:45:59.484Z,2.00
2023-03-31T15:48:50.024Z,2.40
2023-03-31T15:51:32.753Z,2.25
2023-03-31T15:53:59.373Z,2.75
2023-03-31T15:56:56.448Z,2.20
2023-03-31T16:02:15.459Z,2.22
2023-03-31T16:04:42.021Z,2.08
2023-03-31T16:07:22.405Z,2.20
2023-03-31T16:10:08.759Z,2.40
2023-03-31T16:12:43.504Z,2.40
2023-03-31T16:15:14.086Z,2.42
2023-03-31T16:17:49.048Z,2.50
2023-03-31T16:20:32.806Z,2.30
2023-03-31T16:23:00.245Z,2.40
2023-03-31T16:25:29.491Z,2.38
2023-03-31T16:28:01.955Z,2.22
2023-03-31T16:30:37.679Z,2.17
2023-03-31T16:33:08.019Z,2.00
2023-03-31T16:35:42.775Z,2.40
2023-03-31T16:38:12.208Z,2.70
2023-03-31T16:40:41.415Z,2.60
2023-03-31T16:43:16.787Z,2.10
2023-03-31T16:45:45.669Z,2.40
2023-03-31T16:48:16.397Z,3.13
2023-03-31T16:50:48.577Z,2.50
2023-03-31T16:53:19.808Z,3.75
2023-03-31T16:55:46.376Z,3.08
2023-03-31T16:58:12.993Z,2.38
2023-03-31T17:00:40.564Z,2.30
2023-03-31T17:03:08.923Z,2.10
2023-03-31T17:05:44.198Z,2.20
2023-03-31T17:08:12.501Z,2.25
2023-03-31T17:10:40.272Z,2.70
2023-03-31T17:13:08.601Z,2.80
2023-03-31T17:15:36.420Z,2.80
2023-03-31T17:18:04.081Z,2.60
2023-03-31T17:20:31.735Z,2.90
2023-03-31T17:22:58.709Z,3.00
2023-03-31T17:25:25.590Z,2.40
2023-03-31T17:27:52.412Z,2.40
2023-03-31T17:30:19.069Z,2.50
2023-03-31T17:32:45.695Z,2.50
2023-03-31T17:35:13.325Z,2.70
2023-03-31T17:37:39.971Z,2.90
2023-03-31T17:40:07.673Z,2.80
2023-03-31T17:42:34.186Z,2.70
2023-03-31T17:45:01.190Z,2.70
2023-03-31T17:47:30.211Z,2.60
2023-03-31T17:49:56.813Z,2.78
2023-03-31T17:52:23.513Z,3.03
2023-03-31T17:54:50.895Z,2.92
2023-03-31T17:57:17.716Z,2.70
2023-03-31T17:59:45.025Z,3.03
2023-03-31T18:02:13.145Z,2.30
2023-03-31T18:04:39.773Z,2.22
2023-03-31T18:07:06.850Z,2.50
2023-03-31T18:09:34.227Z,2.10
2023-03-31T18:12:00.813Z,1.75
2023-03-31T18:14:27.689Z,2.10
2023-03-31T18:16:54.529Z,2.22
2023-03-31T18:19:21.186Z,2.10
2023-03-31T18:21:47.862Z,2.10
2023-03-31T18:24:14.513Z,2.20
2023-03-31T18:26:41.638Z,2.10
2023-03-31T18:29:08.474Z,2.17
2023-03-31T18:31:35.630Z,2.05
2023-03-31T18:34:02.215Z,2.20
2023-03-31T18:36:29.763Z,2.45
2023-03-31T18:38:56.375Z,2.95
2023-03-31T18:41:23.638Z,2.70
2023-03-31T18:43:53.033Z,3.05
2023-03-31T18:46:19.898Z,2.60
2023-03-31T18:48:46.660Z,2.35
2023-03-31T18:51:14.460Z,2.22
2023-03-31T18:53:41.440Z,2.15
2023-03-31T18:56:08.066Z,2.08
2023-03-31T18:58:34.846Z,2.17
2023-03-31T19:01:01.508Z,2.30
2023-03-31T19:03:28.621Z,2.20
2023-03-31T19:06:10.115Z,2.30
2023-03-31T19:08:37.060Z,2.30
2023-03-31T19:11:15.118Z,2.22
2023-03-31T19:13:42.909Z,2.20
2023-03-31T19:16:10.977Z,2.38
2023-03-31T19:18:37.644Z,2.22
2023-03-31T19:21:04.402Z,2.00
2023-03-31T19:23:31.672Z,2.03
2023-03-31T19:25:59.559Z,2.30
2023-03-31T19:28:27.706Z,2.22
2023-03-31T19:30:56.610Z,1.92
2023-03-31T19:33:24.266Z,2.20
2023-03-31T19:35:51.393Z,2.17
2023-03-31T19:38:18.877Z,2.40
2023-03-31T19:40:45.661Z,2.13
2023-03-31T19:43:21.576Z,2.30
2023-03-31T19:45:49.233Z,2.30
2023-03-31T19:48:16.532Z,2.17
2023-03-31T19:50:51.026Z,2.60
2023-03-31T19:53:17.921Z,2.50
2023-03-31T19:55:44.649Z,2.38
2023-03-31T19:58:11.487Z,2.70
2023-03-31T20:00:39.187Z,2.30
2023-03-31T20:03:06.146Z,2.60
2023-03-31T20:05:32.905Z,2.10
2023-03-31T20:07:59.493Z,2.55
2023-03-31T20:10:26.363Z,2.60
2023-03-31T20:12:52.962Z,2.28
2023-03-31T20:15:19.477Z,2.38
2023-03-31T20:17:46.496Z,2.40
2023-03-31T20:20:13.250Z,2.47
2023-03-31T20:22:41.257Z,2.85
2023-03-31T20:25:08.088Z,2.60
2023-03-31T20:27:34.612Z,2.63
2023-03-31T20:30:01.243Z,2.78
2023-03-31T20:32:27.813Z,2.45
2023-03-31T20:34:54.622Z,3.00
2023-03-31T20:37:21.178Z,2.75
2023-03-31T20:39:48.461Z,2.58
2023-03-31T20:42:14.967Z,3.00
2023-03-31T20:44:41.727Z,2.83
2023-03-31T20:47:09.205Z,2.63
2023-03-31T20:49:35.785Z,2.72
2023-03-31T20:52:02.439Z,2.90
2023-03-31T20:54:29.021Z,2.95
2023-03-31T20:56:56.432Z,2.90
2023-03-31T20:59:23.649Z,2.67
2023-03-31T21:01:50.247Z,2.53
2023-03-31T21:04:16.965Z,2.55
2023-03-31T21:06:46.531Z,2.42
2023-03-31T21:09:14.340Z,2.60
2023-03-31T21:11:41.447Z,3.05
2023-03-31T21:14:12.721Z,2.70
2023-03-31T21:16:40.271Z,2.65
2023-03-31T21:19:06.875Z,2.60
2023-03-31T21:21:35.183Z,2.30
2023-03-31T21:24:01.803Z,3.03
2023-03-31T21:26:28.363Z,2.60
2023-03-31T21:28:55.006Z,2.72
2023-03-31T21:31:24.128Z,2.65
2023-03-31T21:33:52.593Z,2.80
2023-03-31T21:36:22.579Z,2.80
2023-03-31T21:38:53.262Z,2.35
2023-03-31T21:41:22.723Z,2.45
2023-03-31T21:43:50.831Z,2.72
2023-03-31T21:46:20.789Z,2.45
2023-03-31T21:48:48.747Z,2.70
2023-03-31T21:51:16.365Z,2.83
2023-03-31T21:53:42.878Z,3.00
2023-03-31T21:56:09.425Z,2.47
2023-03-31T21:58:36.071Z,2.65
2023-03-31T22:01:04.092Z,2.78
2023-03-31T22:03:34.060Z,2.80
2023-03-31T22:06:03.408Z,2.45
2023-03-31T22:08:31.508Z,2.60
2023-03-31T22:11:00.002Z,2.50
2023-03-31T22:13:27.054Z,2.60
2023-03-31T22:15:54.060Z,2.70
2023-03-31T22:18:22.025Z,2.75
2023-03-31T22:20:49.542Z,2.63
2023-03-31T22:23:17.078Z,2.83
2023-03-31T22:25:43.889Z,2.63
2023-03-31T22:28:16.887Z,2.40
2023-03-31T22:30:43.944Z,2.50
2023-03-31T22:33:10.518Z,2.65
2023-03-31T22:35:37.124Z,2.60
2023-03-31T22:38:04.468Z,2.65
2023-03-31T22:40:32.665Z,2.70
2023-03-31T22:43:00.904Z,2.50
2023-03-31T22:45:27.591Z,2.60
2023-03-31T22:47:54.556Z,2.30
2023-03-31T22:50:21.550Z,2.38
2023-03-31T22:52:48.066Z,2.28
2023-03-31T22:55:14.644Z,2.53
2023-03-31T22:57:41.334Z,2.50
2023-03-31T23:00:09.062Z,2.40
2023-03-31T23:02:35.634Z,2.05
2023-03-31T23:05:02.213Z,2.50
2023-03-31T23:07:29.779Z,2.25
2023-03-31T23:09:56.379Z,2.05
2023-03-31T23:12:26.296Z,2.05
2023-03-31T23:14:52.958Z,2.00
2023-03-31T23:17:19.627Z,2.17
2023-03-31T23:19:50.425Z,2.20
2023-03-31T23:22:16.978Z,2.33
2023-03-31T23:24:43.468Z,2.20
2023-03-31T23:27:09.968Z,2.40
2023-03-31T23:29:36.837Z,2.15
2023-03-31T23:32:03.667Z,2.50
2023-03-31T23:34:30.453Z,2.25
2023-03-31T23:36:57.258Z,2.10
2023-03-31T23:39:23.888Z,2.10
2023-03-31T23:41:51.071Z,2.28
2023-03-31T23:44:17.908Z,2.40
2023-03-31T23:46:44.482Z,2.30
2023-03-31T23:49:11.974Z,2.50
2023-03-31T23:51:38.800Z,2.30
2023-03-31T23:54:05.309Z,2.20
2023-03-31T23:56:31.940Z,2.22
2023-03-31T23:58:58.602Z,2.33
